Tee Cenac — WDG7996 — position and weather

sailwx.info

Track history (hours):
 
Tides and Currents Weather Stations Pressure Air Temp Water Temp Dewpoint Dewpoint Depression Visibility Wind Speed Wind Dir Waves Ship Positions

Tee Cenac

Owner: Cenac Marine Services, Houma, LA. More information available from US FCC via Universal Licensing System and Coast Guard Vessel Documentation Center.

Last reported at 2018-Feb-21 05:16 UTC. Time now 2018-Feb-21 19:37 UTC.
Position N 29°32' W 090°52'.

Length 22 m; draft 3.2 m.

Type: Tug. MMSI: 367572970.

Date/timePositionNaut miles runAvg speedWind from/ knotsBaromVisibWave heightAir tempDewpointWater temp
2018-Feb-21 05:16N 29°32' W 090°52'1 4.8
2018-Feb-21 05:00N 29°32' W 090°50'2 4.5
2018-Feb-21 04:30N 29°32' W 090°48'2 4.0
2018-Feb-21 04:01N 29°33' W 090°45'2 4.0
2018-Feb-21 03:31N 29°34' W 090°44'2 3.4
2018-Feb-21 03:00N 29°35' W 090°43'1 2.5
2018-Feb-21 02:31N 29°37' W 090°42'3 4.9
2018-Feb-21 01:59N 29°36' W 090°40'3 6.1
2018-Feb-21 01:30N 29°35' W 090°37'0 0.0
2018-Feb-21 01:00N 29°35' W 090°37'0 0.0
2018-Feb-21 00:30N 29°35' W 090°37'0 0.0
2018-Feb-21 00:00N 29°35' W 090°37'0 0.0
2018-Feb-20 23:30N 29°35' W 090°37'0 0.0
2018-Feb-20 23:00N 29°35' W 090°37'0 0.0
2018-Feb-20 22:28N 29°35' W 090°37'0 0.0
2018-Feb-20 22:00N 29°35' W 090°37'0 0.0
2018-Feb-20 21:29N 29°35' W 090°37'0 0.0
2018-Feb-20 21:00N 29°35' W 090°37'0 0.0
2018-Feb-20 20:29N 29°35' W 090°37'0 0.0
2018-Feb-20 20:00N 29°35' W 090°37'0 0.0
2018-Feb-20 19:27N 29°35' W 090°37'0 0.0
2018-Feb-20 19:00N 29°35' W 090°37'0 0.0
2018-Feb-20 18:23N 29°35' W 090°37'0 0.0
2018-Feb-20 18:00N 29°35' W 090°37'0 0.1
2018-Feb-20 17:30N 29°35' W 090°37'3 5.8
2018-Feb-20 17:00N 29°36' W 090°40'3 5.2
2018-Feb-20 16:30N 29°37' W 090°42'0 0.0
2018-Feb-20 15:59N 29°37' W 090°42'0 0.7
2018-Feb-20 15:30N 29°37' W 090°42'0 0.2
2018-Feb-20 15:00N 29°37' W 090°42'2 3.7
2018-Feb-20 14:30N 29°36' W 090°40'2 4.9
2018-Feb-20 14:00N 29°35' W 090°38'2 4.0
2018-Feb-20 13:30N 29°35' W 090°35'2 4.6
2018-Feb-20 13:00N 29°34' W 090°33'4 0.1
2018-Feb-18 16:02N 29°34' W 090°28'0 6.8
2018-Feb-18 16:00N 29°34' W 090°29'3 6.3
2018-Feb-18 15:30N 29°34' W 090°32'3 6.2
2018-Feb-18 15:00N 29°35' W 090°36'3 5.5
2018-Feb-18 14:30N 29°35' W 090°39'3 5.3
2018-Feb-18 14:01N 29°37' W 090°41'1 1.7
2018-Feb-18 13:31N 29°37' W 090°42'0 0.0
2018-Feb-18 13:00N 29°37' W 090°42'0 0.0
2018-Feb-18 12:30N 29°37' W 090°42'0 0.0
2018-Feb-18 12:00N 29°37' W 090°42'0 0.0
2018-Feb-18 11:30N 29°37' W 090°42'0 0.0
2018-Feb-18 11:01N 29°37' W 090°42'0 0.0
2018-Feb-18 10:29N 29°37' W 090°42'0 0.0
2018-Feb-18 10:00N 29°37' W 090°42'0 0.0
2018-Feb-18 09:30N 29°37' W 090°42'0 0.0
2018-Feb-18 09:00N 29°37' W 090°42'0 0.0
2018-Feb-18 08:27N 29°37' W 090°42'0 0.0
2018-Feb-18 08:00N 29°37' W 090°42'0 0.0
2018-Feb-18 07:29N 29°37' W 090°42'0 0.0
2018-Feb-18 07:00N 29°37' W 090°42'0 0.0
2018-Feb-18 06:27N 29°37' W 090°42'0 0.7
2018-Feb-18 06:00N 29°37' W 090°43'0 0.0
2018-Feb-18 05:31N 29°37' W 090°43'0 0.0
2018-Feb-18 05:01N 29°37' W 090°43'0 0.3
2018-Feb-18 04:31N 29°37' W 090°42'2 4.8
2018-Feb-18 04:00N 29°34' W 090°43'2 4.7
2018-Feb-18 03:31N 29°33' W 090°45'1 1.0
2018-Feb-18 03:00N 29°33' W 090°46'0 0.5
2018-Feb-18 02:30N 29°32' W 090°46'0 0.0
2018-Feb-18 02:01N 29°32' W 090°46'3 5.5
2018-Feb-18 01:30N 29°32' W 090°49'63 3.1
2018-Feb-17 05:08N 29°50' W 091°58'1 6.3
2018-Feb-17 04:59N 29°50' W 091°59'3 6.8
2018-Feb-17 04:31N 29°49' W 092°03'3 6.7
2018-Feb-17 04:00N 29°48' W 092°07'3 6.5
2018-Feb-17 03:30N 29°47' W 092°10'3 5.7
2018-Feb-17 03:00N 29°47' W 092°13'1 2.5
2018-Feb-17 02:31N 29°48' W 092°15'3 6.1
2018-Feb-17 02:00N 29°50' W 092°18'41 5.7
2018-Feb-16 18:51N 29°56' W 093°04'2 6.0
2018-Feb-16 18:30N 29°56' W 093°07'3 5.2
2018-Feb-16 18:00N 29°56' W 093°10'3 5.7
2018-Feb-16 17:30N 29°59' W 093°12'3 5.5
2018-Feb-16 17:00N 30°01' W 093°14'3 5.3
2018-Feb-16 16:30N 30°03' W 093°16'3 5.7
2018-Feb-16 16:01N 30°05' W 093°17'1 2.1
2018-Feb-16 15:30N 30°06' W 093°18'0 0.0
2018-Feb-16 15:00N 30°06' W 093°18'0 0.0
2018-Feb-16 14:30N 30°06' W 093°18'0 0.0
2018-Feb-16 14:00N 30°06' W 093°18'0 0.2
2018-Feb-16 13:31N 30°06' W 093°18'0 0.8
2018-Feb-16 12:59N 30°06' W 093°18'0 0.0
2018-Feb-16 12:29N 30°06' W 093°18'0 0.0
2018-Feb-16 11:59N 30°06' W 093°18'0 0.0
2018-Feb-16 11:29N 30°06' W 093°18'0 0.0
2018-Feb-16 10:59N 30°06' W 093°18'0 0.0
2018-Feb-16 10:29N 30°06' W 093°18'0 0.0
2018-Feb-16 09:59N 30°06' W 093°18'0 0.0
2018-Feb-16 09:29N 30°06' W 093°18'0 0.0
2018-Feb-16 08:59N 30°06' W 093°18'0 0.0
2018-Feb-16 08:29N 30°06' W 093°18'0 0.0
2018-Feb-16 07:59N 30°06' W 093°18'0 0.0
2018-Feb-16 07:29N 30°06' W 093°18'0 0.0
2018-Feb-16 06:59N 30°06' W 093°18'0 0.0
2018-Feb-16 06:29N 30°06' W 093°18'0 0.0
2018-Feb-16 05:59N 30°06' W 093°18'0 0.0
2018-Feb-16 05:29N 30°06' W 093°18'0 0.0
2018-Feb-16 04:53N 30°06' W 093°18'0 0.0
2018-Feb-16 04:29N 30°06' W 093°18'0 0.0
2018-Feb-16 03:59N 30°06' W 093°18'0 0.0
2018-Feb-16 03:29N 30°06' W 093°18'0 0.0
2018-Feb-16 02:59N 30°06' W 093°18'0 0.0
2018-Feb-16 02:29N 30°06' W 093°18'0 0.0
2018-Feb-16 01:59N 30°06' W 093°18'0 0.0
2018-Feb-16 01:29N 30°06' W 093°18'0 0.0
2018-Feb-16 00:59N 30°06' W 093°18'0 0.0
2018-Feb-16 00:23N 30°06' W 093°18'0 0.0
2018-Feb-15 23:47N 30°06' W 093°18'0 0.0
2018-Feb-15 23:20N 30°06' W 093°18'0 0.0
2018-Feb-15 22:56N 30°06' W 093°18'0 0.0
2018-Feb-15 22:29N 30°06' W 093°18'0 0.0
2018-Feb-15 21:59N 30°06' W 093°18'0 0.0
2018-Feb-15 21:29N 30°06' W 093°18'0 0.0
2018-Feb-15 20:59N 30°06' W 093°18'0 0.0
2018-Feb-15 20:29N 30°06' W 093°18'0 0.0
2018-Feb-15 19:59N 30°06' W 093°18'0 0.1
2018-Feb-15 19:29N 30°06' W 093°18'1 1.3
2018-Feb-15 19:00N 30°06' W 093°19'3 5.8
2018-Feb-15 18:31N 30°04' W 093°21'2 4.2
2018-Feb-15 18:01N 30°04' W 093°24'2 4.8
2018-Feb-15 17:30N 30°04' W 093°26'3 6.4
2018-Feb-15 17:00N 30°04' W 093°30'1 1.3
2018-Feb-15 16:29N 30°04' W 093°31'0 0.0
2018-Feb-15 15:59N 30°04' W 093°31'0 0.0
2018-Feb-15 15:29N 30°04' W 093°31'0 0.0
2018-Feb-15 14:59N 30°04' W 093°31'0 0.0
2018-Feb-15 14:26N 30°04' W 093°31'0 0.0
2018-Feb-15 13:59N 30°04' W 093°31'0 0.0
2018-Feb-15 13:29N 30°04' W 093°31'0 0.0
2018-Feb-15 12:56N 30°04' W 093°31'0 0.0
2018-Feb-15 12:29N 30°04' W 093°31'0 0.0
2018-Feb-15 11:59N 30°04' W 093°31'0 0.0
2018-Feb-15 11:29N 30°04' W 093°31'0 0.0
2018-Feb-15 10:59N 30°04' W 093°31'0 0.0
2018-Feb-15 10:29N 30°04' W 093°31'0 0.0
2018-Feb-15 09:56N 30°04' W 093°31'0 0.0
2018-Feb-15 09:23N 30°04' W 093°31'0 0.0
2018-Feb-15 08:59N 30°04' W 093°31'0 0.0
2018-Feb-15 08:29N 30°04' W 093°31'0 0.0
2018-Feb-15 07:56N 30°04' W 093°31'0 0.0
2018-Feb-15 07:20N 30°04' W 093°31'0 0.0
2018-Feb-15 06:59N 30°04' W 093°31'0 0.0
2018-Feb-15 06:02N 30°04' W 093°31'0 0.0
2018-Feb-15 05:56N 30°04' W 093°31'0 0.0
2018-Feb-15 05:29N 30°04' W 093°31'0 0.0
2018-Feb-15 04:44N 30°04' W 093°31'0 0.0
2018-Feb-15 04:29N 30°04' W 093°31'0 0.0
2018-Feb-15 03:59N 30°04' W 093°31'0 0.0
2018-Feb-15 03:29N 30°04' W 093°31'0 0.0
2018-Feb-15 02:56N 30°04' W 093°31'0 0.0
2018-Feb-15 02:17N 30°04' W 093°31'0 0.0
2018-Feb-15 01:59N 30°04' W 093°31'0 0.0
2018-Feb-15 01:26N 30°04' W 093°31'0 0.1
2018-Feb-15 01:00N 30°04' W 093°31'7 5.6
2018-Feb-14 23:47N 30°04' W 093°39'1 4.3
2018-Feb-14 23:29N 30°03' W 093°40'3 5.8
2018-Feb-14 23:00N 30°03' W 093°43'1 2.6
2018-Feb-14 22:30N 30°02' W 093°44'3 5.7
2018-Feb-14 22:00N 29°60' W 093°46'3 5.9
2018-Feb-14 21:30N 29°59' W 093°49'2 4.6
2018-Feb-14 21:00N 29°57' W 093°52'0 0.9
2018-Feb-14 20:30N 29°58' W 093°52'0 0.0
2018-Feb-14 20:00N 29°58' W 093°52'0 0.0
2018-Feb-14 19:30N 29°58' W 093°52'0 0.0
2018-Feb-14 19:00N 29°58' W 093°52'0 0.9
2018-Feb-14 18:30N 29°57' W 093°52'1 1.6
2018-Feb-14 18:00N 29°58' W 093°51'0 0.2
2018-Feb-14 17:29N 29°58' W 093°52'0 0.0
2018-Feb-14 16:59N 29°58' W 093°52'0 0.0
2018-Feb-14 16:29N 29°58' W 093°52'0 0.0
2018-Feb-14 15:59N 29°58' W 093°52'0 0.0
2018-Feb-14 15:29N 29°58' W 093°52'0 0.0
2018-Feb-14 14:56N 29°58' W 093°52'0 0.0
2018-Feb-14 14:29N 29°58' W 093°52'0 0.0
2018-Feb-14 13:59N 29°58' W 093°52'0 0.0
2018-Feb-14 13:29N 29°58' W 093°52'0 0.0
2018-Feb-14 12:59N 29°58' W 093°52'0 0.0
2018-Feb-14 12:29N 29°58' W 093°52'0 0.0
2018-Feb-14 11:59N 29°58' W 093°52'0 0.0
2018-Feb-14 11:29N 29°58' W 093°52'0 0.0
2018-Feb-14 10:59N 29°58' W 093°52'0 0.0
2018-Feb-14 10:29N 29°58' W 093°52'0 0.0
2018-Feb-14 09:59N 29°58' W 093°52'0 0.0
2018-Feb-14 09:29N 29°58' W 093°52'0 0.0
2018-Feb-14 08:58N 29°58' W 093°52'0 0.0
2018-Feb-14 08:29N 29°58' W 093°52'0 0.0
2018-Feb-14 07:59N 29°58' W 093°52'0 0.0
2018-Feb-14 07:29N 29°58' W 093°52'0 0.0
2018-Feb-14 06:59N 29°58' W 093°52'0 0.0
2018-Feb-14 06:29N 29°58' W 093°52'1 1.1
2018-Feb-14 06:00N 29°58' W 093°52'1 1.5
2018-Feb-14 05:30N 29°57' W 093°52'2 4.6
2018-Feb-14 05:00N 29°59' W 093°53'0 0.3
2018-Feb-14 04:29N 29°59' W 093°53'0 0.0
2018-Feb-14 03:59N 29°59' W 093°53'0 0.0
2018-Feb-14 03:29N 29°59' W 093°53'0 0.0
2018-Feb-14 02:59N 29°59' W 093°53'0 0.0
2018-Feb-14 02:29N 29°59' W 093°53'0 0.0
2018-Feb-14 01:59N 29°59' W 093°53'0 0.0
2018-Feb-14 01:29N 29°59' W 093°53'0 0.0
2018-Feb-14 00:59N 29°59' W 093°53'0 0.0
2018-Feb-14 00:29N 29°59' W 093°53'0 0.0
2018-Feb-13 23:59N 29°59' W 093°53'0 0.0
2018-Feb-13 23:29N 29°59' W 093°53'0 0.0
2018-Feb-13 22:59N 29°59' W 093°53'0 0.0
2018-Feb-13 22:29N 29°59' W 093°53'0 0.0
2018-Feb-13 21:59N 29°59' W 093°53'0 0.0
2018-Feb-13 21:29N 29°59' W 093°53'0 0.0
2018-Feb-13 20:56N 29°59' W 093°53'0 0.0
2018-Feb-13 20:29N 29°59' W 093°53'0 0.0
2018-Feb-13 19:59N 29°59' W 093°53'0 0.0
2018-Feb-13 19:29N 29°59' W 093°53'0 0.0
2018-Feb-13 18:59N 29°59' W 093°53'0 0.0
2018-Feb-13 18:29N 29°59' W 093°53'0 0.0
2018-Feb-13 17:59N 29°59' W 093°53'0 0.0
2018-Feb-13 17:29N 29°59' W 093°53'0 0.0
2018-Feb-13 16:56N 29°59' W 093°53'0 0.0
2018-Feb-13 16:29N 29°59' W 093°53'0 0.0
2018-Feb-13 15:59N 29°59' W 093°53'0 0.0
2018-Feb-13 15:29N 29°59' W 093°53'0 0.0
2018-Feb-13 14:59N 29°59' W 093°53'0 0.0
2018-Feb-13 14:29N 29°59' W 093°53'0 0.0
2018-Feb-13 13:59N 29°59' W 093°53'0 0.0
2018-Feb-13 13:29N 29°59' W 093°53'0 0.0
2018-Feb-13 12:59N 29°59' W 093°53'0 0.0
2018-Feb-13 12:29N 29°59' W 093°53'0 0.0
2018-Feb-13 11:59N 29°59' W 093°53'0 0.0
2018-Feb-13 11:29N 29°59' W 093°53'0 0.0
2018-Feb-13 10:59N 29°59' W 093°53'0 0.0
2018-Feb-13 10:26N 29°59' W 093°53'0 0.0
2018-Feb-13 09:59N 29°59' W 093°53'0 0.0
2018-Feb-13 09:26N 29°59' W 093°53'0 0.0
2018-Feb-13 08:59N 29°59' W 093°53'0 0.0
2018-Feb-13 08:29N 29°59' W 093°53'0 0.0
2018-Feb-13 07:59N 29°59' W 093°53'0 0.0
2018-Feb-13 07:29N 29°59' W 093°53'0 0.0
2018-Feb-13 06:59N 29°59' W 093°53'0 0.0
2018-Feb-13 06:29N 29°59' W 093°53'0 0.0
2018-Feb-13 05:59N 29°59' W 093°53'0 0.0
2018-Feb-13 05:29N 29°59' W 093°53'0 0.0
2018-Feb-13 04:59N 29°59' W 093°53'0 0.0
2018-Feb-13 04:29N 29°59' W 093°53'0 0.0
2018-Feb-13 04:00N 29°59' W 093°53'0 0.1
2018-Feb-13 03:29N 29°59' W 093°53'0 0.0
2018-Feb-13 02:59N 29°59' W 093°53'0 0.0
2018-Feb-13 02:29N 29°59' W 093°53'0 0.0
2018-Feb-13 01:59N 29°59' W 093°53'0 0.0
2018-Feb-13 01:29N 29°59' W 093°53'0 0.0
2018-Feb-13 00:59N 29°59' W 093°53'0 0.0
2018-Feb-13 00:26N 29°59' W 093°53'0 0.0
2018-Feb-12 23:59N 29°59' W 093°53'0 0.0
2018-Feb-12 23:29N 29°59' W 093°53'0 0.0
2018-Feb-12 23:00N 29°59' W 093°53'0 0.3
2018-Feb-12 22:29N 29°59' W 093°53'1 3.0
2018-Feb-12 22:00N 29°58' W 093°51'0 0.5
2018-Feb-12 21:30N 29°58' W 093°51'1 1.2
2018-Feb-12 21:00N 29°58' W 093°50'1 1.4
2018-Feb-12 20:30N 29°59' W 093°50'1 2.4
2018-Feb-12 20:00N 29°59' W 093°48'2 4.9
2018-Feb-12 19:30N 30°00' W 093°46'3 5.2
2018-Feb-12 18:55N 30°03' W 093°44'3 5.1
2018-Feb-12 18:19N 30°04' W 093°40'2 5.7
2018-Feb-12 18:00N 30°04' W 093°38'3 5.2
2018-Feb-12 17:29N 30°04' W 093°35'2 4.6
2018-Feb-12 17:00N 30°04' W 093°33'2 4.6
2018-Feb-12 16:29N 30°04' W 093°30'2 4.5
2018-Feb-12 16:00N 30°04' W 093°27'2 4.2
2018-Feb-12 15:30N 30°04' W 093°25'2 4.4
2018-Feb-12 14:59N 30°04' W 093°22'2 3.3
2018-Feb-12 14:29N 30°04' W 093°21'2 4.1
2018-Feb-12 14:00N 30°06' W 093°19'2 3.3
2018-Feb-12 13:30N 30°05' W 093°17'2 4.2
2018-Feb-12 13:00N 30°04' W 093°16'2 4.1
2018-Feb-12 12:30N 30°02' W 093°15'2 3.9
2018-Feb-12 11:59N 30°00' W 093°13'1 1.0
2018-Feb-12 11:27N 29°60' W 093°13'0 0.9
2018-Feb-12 10:59N 29°59' W 093°13'2 4.0
2018-Feb-12 10:31N 29°58' W 093°11'2 4.0
2018-Feb-12 09:55N 29°56' W 093°09'42 3.8
2018-Feb-11 22:53N 29°51' W 092°22'1 3.7
2018-Feb-11 22:30N 29°51' W 092°20'2 3.7
2018-Feb-11 21:58N 29°50' W 092°18'2 3.2
2018-Feb-11 21:30N 29°49' W 092°17'2 3.8
2018-Feb-11 21:00N 29°48' W 092°15'2 3.9
2018-Feb-11 20:30N 29°47' W 092°13'1 2.8
2018-Feb-11 19:59N 29°47' W 092°11'0 0.2
2018-Feb-11 19:27N 29°47' W 092°11'0 0.0
2018-Feb-11 19:00N 29°47' W 092°11'0 0.0
2018-Feb-11 18:29N 29°47' W 092°11'0 0.0
2018-Feb-11 18:01N 29°47' W 092°11'0 0.0
2018-Feb-11 17:30N 29°47' W 092°11'0 0.1
2018-Feb-11 17:00N 29°47' W 092°11'0 0.4
2018-Feb-11 16:30N 29°47' W 092°11'1 2.5
2018-Feb-11 16:01N 29°47' W 092°09'0 0.0
2018-Feb-11 15:31N 29°47' W 092°09'0 0.0
2018-Feb-11 15:00N 29°47' W 092°09'0 0.0
2018-Feb-11 14:30N 29°47' W 092°09'0 0.1
2018-Feb-11 14:00N 29°47' W 092°09'0 0.1
2018-Feb-11 13:30N 29°47' W 092°09'0 0.0
2018-Feb-11 12:59N 29°47' W 092°09'0 0.0
2018-Feb-11 12:31N 29°47' W 092°09'0 0.0
2018-Feb-11 12:00N 29°47' W 092°09'0 0.0
2018-Feb-11 11:31N 29°47' W 092°09'0 0.0
2018-Feb-11 11:00N 29°47' W 092°09'0 0.0
2018-Feb-11 10:30N 29°47' W 092°09'0 0.0
2018-Feb-11 10:01N 29°47' W 092°09'0 0.0
2018-Feb-11 09:30N 29°47' W 092°09'0 0.0
2018-Feb-11 09:00N 29°47' W 092°09'0 0.0
2018-Feb-11 08:31N 29°47' W 092°09'0 0.0
2018-Feb-11 08:00N 29°47' W 092°09'0 0.0
2018-Feb-11 07:31N 29°47' W 092°09'0 0.0
2018-Feb-11 07:00N 29°47' W 092°09'0 0.0
2018-Feb-11 06:30N 29°47' W 092°09'0 0.0
2018-Feb-11 06:00N 29°47' W 092°09'0 0.0
2018-Feb-11 05:31N 29°47' W 092°09'  
Track history (hours):
 
Tides and Currents Weather Stations Pressure Air Temp Water Temp Dewpoint Dewpoint Depression Visibility Wind Speed Wind Dir Waves Ship Positions

Tee Cenac

Owner: Cenac Marine Services, Houma, LA. More information available from US FCC via Universal Licensing System and Coast Guard Vessel Documentation Center.

Last reported at 2018-Feb-21 05:16 UTC. Time now 2018-Feb-21 19:37 UTC.
Position N 29°32' W 090°52'.

Length 22 m; draft 3.2 m.

Type: Tug. MMSI: 367572970.

Date/timePositionNaut miles runAvg speedWind from/ knotsBaromVisibWave heightAir tempDewpointWater temp
2018-Feb-21 05:16N 29°32' W 090°52'1 4.8
2018-Feb-21 05:00N 29°32' W 090°50'2 4.5
2018-Feb-21 04:30N 29°32' W 090°48'2 4.0
2018-Feb-21 04:01N 29°33' W 090°45'2 4.0
2018-Feb-21 03:31N 29°34' W 090°44'2 3.4
2018-Feb-21 03:00N 29°35' W 090°43'1 2.5
2018-Feb-21 02:31N 29°37' W 090°42'3 4.9
2018-Feb-21 01:59N 29°36' W 090°40'3 6.1
2018-Feb-21 01:30N 29°35' W 090°37'0 0.0
2018-Feb-21 01:00N 29°35' W 090°37'0 0.0
2018-Feb-21 00:30N 29°35' W 090°37'0 0.0
2018-Feb-21 00:00N 29°35' W 090°37'0 0.0
2018-Feb-20 23:30N 29°35' W 090°37'0 0.0
2018-Feb-20 23:00N 29°35' W 090°37'0 0.0
2018-Feb-20 22:28N 29°35' W 090°37'0 0.0
2018-Feb-20 22:00N 29°35' W 090°37'0 0.0
2018-Feb-20 21:29N 29°35' W 090°37'0 0.0
2018-Feb-20 21:00N 29°35' W 090°37'0 0.0
2018-Feb-20 20:29N 29°35' W 090°37'0 0.0
2018-Feb-20 20:00N 29°35' W 090°37'0 0.0
2018-Feb-20 19:27N 29°35' W 090°37'0 0.0
2018-Feb-20 19:00N 29°35' W 090°37'0 0.0
2018-Feb-20 18:23N 29°35' W 090°37'0 0.0
2018-Feb-20 18:00N 29°35' W 090°37'0 0.1
2018-Feb-20 17:30N 29°35' W 090°37'3 5.8
2018-Feb-20 17:00N 29°36' W 090°40'3 5.2
2018-Feb-20 16:30N 29°37' W 090°42'0 0.0
2018-Feb-20 15:59N 29°37' W 090°42'0 0.7
2018-Feb-20 15:30N 29°37' W 090°42'0 0.2
2018-Feb-20 15:00N 29°37' W 090°42'2 3.7
2018-Feb-20 14:30N 29°36' W 090°40'2 4.9
2018-Feb-20 14:00N 29°35' W 090°38'2 4.0
2018-Feb-20 13:30N 29°35' W 090°35'2 4.6
2018-Feb-20 13:00N 29°34' W 090°33'4 0.1
2018-Feb-18 16:02N 29°34' W 090°28'0 6.8
2018-Feb-18 16:00N 29°34' W 090°29'3 6.3
2018-Feb-18 15:30N 29°34' W 090°32'3 6.2
2018-Feb-18 15:00N 29°35' W 090°36'3 5.5
2018-Feb-18 14:30N 29°35' W 090°39'3 5.3
2018-Feb-18 14:01N 29°37' W 090°41'1 1.7
2018-Feb-18 13:31N 29°37' W 090°42'0 0.0
2018-Feb-18 13:00N 29°37' W 090°42'0 0.0
2018-Feb-18 12:30N 29°37' W 090°42'0 0.0
2018-Feb-18 12:00N 29°37' W 090°42'0 0.0
2018-Feb-18 11:30N 29°37' W 090°42'0 0.0
2018-Feb-18 11:01N 29°37' W 090°42'0 0.0
2018-Feb-18 10:29N 29°37' W 090°42'0 0.0
2018-Feb-18 10:00N 29°37' W 090°42'0 0.0
2018-Feb-18 09:30N 29°37' W 090°42'0 0.0
2018-Feb-18 09:00N 29°37' W 090°42'0 0.0
2018-Feb-18 08:27N 29°37' W 090°42'0 0.0
2018-Feb-18 08:00N 29°37' W 090°42'0 0.0
2018-Feb-18 07:29N 29°37' W 090°42'0 0.0
2018-Feb-18 07:00N 29°37' W 090°42'0 0.0
2018-Feb-18 06:27N 29°37' W 090°42'0 0.7
2018-Feb-18 06:00N 29°37' W 090°43'0 0.0
2018-Feb-18 05:31N 29°37' W 090°43'0 0.0
2018-Feb-18 05:01N 29°37' W 090°43'0 0.3
2018-Feb-18 04:31N 29°37' W 090°42'2 4.8
2018-Feb-18 04:00N 29°34' W 090°43'2 4.7
2018-Feb-18 03:31N 29°33' W 090°45'1 1.0
2018-Feb-18 03:00N 29°33' W 090°46'0 0.5
2018-Feb-18 02:30N 29°32' W 090°46'0 0.0
2018-Feb-18 02:01N 29°32' W 090°46'3 5.5
2018-Feb-18 01:30N 29°32' W 090°49'63 3.1
2018-Feb-17 05:08N 29°50' W 091°58'1 6.3
2018-Feb-17 04:59N 29°50' W 091°59'3 6.8
2018-Feb-17 04:31N 29°49' W 092°03'3 6.7
2018-Feb-17 04:00N 29°48' W 092°07'3 6.5
2018-Feb-17 03:30N 29°47' W 092°10'3 5.7
2018-Feb-17 03:00N 29°47' W 092°13'1 2.5
2018-Feb-17 02:31N 29°48' W 092°15'3 6.1
2018-Feb-17 02:00N 29°50' W 092°18'41 5.7
2018-Feb-16 18:51N 29°56' W 093°04'2 6.0
2018-Feb-16 18:30N 29°56' W 093°07'3 5.2
2018-Feb-16 18:00N 29°56' W 093°10'3 5.7
2018-Feb-16 17:30N 29°59' W 093°12'3 5.5
2018-Feb-16 17:00N 30°01' W 093°14'3 5.3
2018-Feb-16 16:30N 30°03' W 093°16'3 5.7
2018-Feb-16 16:01N 30°05' W 093°17'1 2.1
2018-Feb-16 15:30N 30°06' W 093°18'0 0.0
2018-Feb-16 15:00N 30°06' W 093°18'0 0.0
2018-Feb-16 14:30N 30°06' W 093°18'0 0.0
2018-Feb-16 14:00N 30°06' W 093°18'0 0.2
2018-Feb-16 13:31N 30°06' W 093°18'0 0.8
2018-Feb-16 12:59N 30°06' W 093°18'0 0.0
2018-Feb-16 12:29N 30°06' W 093°18'0 0.0
2018-Feb-16 11:59N 30°06' W 093°18'0 0.0
2018-Feb-16 11:29N 30°06' W 093°18'0 0.0
2018-Feb-16 10:59N 30°06' W 093°18'0 0.0
2018-Feb-16 10:29N 30°06' W 093°18'0 0.0
2018-Feb-16 09:59N 30°06' W 093°18'0 0.0
2018-Feb-16 09:29N 30°06' W 093°18'0 0.0
2018-Feb-16 08:59N 30°06' W 093°18'0 0.0
2018-Feb-16 08:29N 30°06' W 093°18'0 0.0
2018-Feb-16 07:59N 30°06' W 093°18'0 0.0
2018-Feb-16 07:29N 30°06' W 093°18'0 0.0
2018-Feb-16 06:59N 30°06' W 093°18'0 0.0
2018-Feb-16 06:29N 30°06' W 093°18'0 0.0
2018-Feb-16 05:59N 30°06' W 093°18'0 0.0
2018-Feb-16 05:29N 30°06' W 093°18'0 0.0
2018-Feb-16 04:53N 30°06' W 093°18'0 0.0
2018-Feb-16 04:29N 30°06' W 093°18'0 0.0
2018-Feb-16 03:59N 30°06' W 093°18'0 0.0
2018-Feb-16 03:29N 30°06' W 093°18'0 0.0
2018-Feb-16 02:59N 30°06' W 093°18'0 0.0
2018-Feb-16 02:29N 30°06' W 093°18'0 0.0
2018-Feb-16 01:59N 30°06' W 093°18'0 0.0
2018-Feb-16 01:29N 30°06' W 093°18'0 0.0
2018-Feb-16 00:59N 30°06' W 093°18'0 0.0
2018-Feb-16 00:23N 30°06' W 093°18'0 0.0
2018-Feb-15 23:47N 30°06' W 093°18'0 0.0
2018-Feb-15 23:20N 30°06' W 093°18'0 0.0
2018-Feb-15 22:56N 30°06' W 093°18'0 0.0
2018-Feb-15 22:29N 30°06' W 093°18'0 0.0
2018-Feb-15 21:59N 30°06' W 093°18'0 0.0
2018-Feb-15 21:29N 30°06' W 093°18'0 0.0
2018-Feb-15 20:59N 30°06' W 093°18'0 0.0
2018-Feb-15 20:29N 30°06' W 093°18'0 0.0
2018-Feb-15 19:59N 30°06' W 093°18'0 0.1
2018-Feb-15 19:29N 30°06' W 093°18'1 1.3
2018-Feb-15 19:00N 30°06' W 093°19'3 5.8
2018-Feb-15 18:31N 30°04' W 093°21'2 4.2
2018-Feb-15 18:01N 30°04' W 093°24'2 4.8
2018-Feb-15 17:30N 30°04' W 093°26'3 6.4
2018-Feb-15 17:00N 30°04' W 093°30'1 1.3
2018-Feb-15 16:29N 30°04' W 093°31'0 0.0
2018-Feb-15 15:59N 30°04' W 093°31'0 0.0
2018-Feb-15 15:29N 30°04' W 093°31'0 0.0
2018-Feb-15 14:59N 30°04' W 093°31'0 0.0
2018-Feb-15 14:26N 30°04' W 093°31'0 0.0
2018-Feb-15 13:59N 30°04' W 093°31'0 0.0
2018-Feb-15 13:29N 30°04' W 093°31'0 0.0
2018-Feb-15 12:56N 30°04' W 093°31'0 0.0
2018-Feb-15 12:29N 30°04' W 093°31'0 0.0
2018-Feb-15 11:59N 30°04' W 093°31'0 0.0
2018-Feb-15 11:29N 30°04' W 093°31'0 0.0
2018-Feb-15 10:59N 30°04' W 093°31'0 0.0
2018-Feb-15 10:29N 30°04' W 093°31'0 0.0
2018-Feb-15 09:56N 30°04' W 093°31'0 0.0
2018-Feb-15 09:23N 30°04' W 093°31'0 0.0
2018-Feb-15 08:59N 30°04' W 093°31'0 0.0
2018-Feb-15 08:29N 30°04' W 093°31'0 0.0
2018-Feb-15 07:56N 30°04' W 093°31'0 0.0
2018-Feb-15 07:20N 30°04' W 093°31'0 0.0
2018-Feb-15 06:59N 30°04' W 093°31'0 0.0
2018-Feb-15 06:02N 30°04' W 093°31'0 0.0
2018-Feb-15 05:56N 30°04' W 093°31'0 0.0
2018-Feb-15 05:29N 30°04' W 093°31'0 0.0
2018-Feb-15 04:44N 30°04' W 093°31'0 0.0
2018-Feb-15 04:29N 30°04' W 093°31'0 0.0
2018-Feb-15 03:59N 30°04' W 093°31'0 0.0
2018-Feb-15 03:29N 30°04' W 093°31'0 0.0
2018-Feb-15 02:56N 30°04' W 093°31'0 0.0
2018-Feb-15 02:17N 30°04' W 093°31'0 0.0
2018-Feb-15 01:59N 30°04' W 093°31'0 0.0
2018-Feb-15 01:26N 30°04' W 093°31'0 0.1
2018-Feb-15 01:00N 30°04' W 093°31'7 5.6
2018-Feb-14 23:47N 30°04' W 093°39'1 4.3
2018-Feb-14 23:29N 30°03' W 093°40'3 5.8
2018-Feb-14 23:00N 30°03' W 093°43'1 2.6
2018-Feb-14 22:30N 30°02' W 093°44'3 5.7
2018-Feb-14 22:00N 29°60' W 093°46'3 5.9
2018-Feb-14 21:30N 29°59' W 093°49'2 4.6
2018-Feb-14 21:00N 29°57' W 093°52'0 0.9
2018-Feb-14 20:30N 29°58' W 093°52'0 0.0
2018-Feb-14 20:00N 29°58' W 093°52'0 0.0
2018-Feb-14 19:30N 29°58' W 093°52'0 0.0
2018-Feb-14 19:00N 29°58' W 093°52'0 0.9
2018-Feb-14 18:30N 29°57' W 093°52'1 1.6
2018-Feb-14 18:00N 29°58' W 093°51'0 0.2
2018-Feb-14 17:29N 29°58' W 093°52'0 0.0
2018-Feb-14 16:59N 29°58' W 093°52'0 0.0
2018-Feb-14 16:29N 29°58' W 093°52'0 0.0
2018-Feb-14 15:59N 29°58' W 093°52'0 0.0
2018-Feb-14 15:29N 29°58' W 093°52'0 0.0
2018-Feb-14 14:56N 29°58' W 093°52'0 0.0
2018-Feb-14 14:29N 29°58' W 093°52'0 0.0
2018-Feb-14 13:59N 29°58' W 093°52'0 0.0
2018-Feb-14 13:29N 29°58' W 093°52'0 0.0
2018-Feb-14 12:59N 29°58' W 093°52'0 0.0
2018-Feb-14 12:29N 29°58' W 093°52'0 0.0
2018-Feb-14 11:59N 29°58' W 093°52'0 0.0
2018-Feb-14 11:29N 29°58' W 093°52'0 0.0
2018-Feb-14 10:59N 29°58' W 093°52'0 0.0
2018-Feb-14 10:29N 29°58' W 093°52'0 0.0
2018-Feb-14 09:59N 29°58' W 093°52'0 0.0
2018-Feb-14 09:29N 29°58' W 093°52'0 0.0
2018-Feb-14 08:58N 29°58' W 093°52'0 0.0
2018-Feb-14 08:29N 29°58' W 093°52'0 0.0
2018-Feb-14 07:59N 29°58' W 093°52'0 0.0
2018-Feb-14 07:29N 29°58' W 093°52'0 0.0
2018-Feb-14 06:59N 29°58' W 093°52'0 0.0
2018-Feb-14 06:29N 29°58' W 093°52'1 1.1
2018-Feb-14 06:00N 29°58' W 093°52'1 1.5
2018-Feb-14 05:30N 29°57' W 093°52'2 4.6
2018-Feb-14 05:00N 29°59' W 093°53'0 0.3
2018-Feb-14 04:29N 29°59' W 093°53'0 0.0
2018-Feb-14 03:59N 29°59' W 093°53'0 0.0
2018-Feb-14 03:29N 29°59' W 093°53'0 0.0
2018-Feb-14 02:59N 29°59' W 093°53'0 0.0
2018-Feb-14 02:29N 29°59' W 093°53'0 0.0
2018-Feb-14 01:59N 29°59' W 093°53'0 0.0
2018-Feb-14 01:29N 29°59' W 093°53'0 0.0
2018-Feb-14 00:59N 29°59' W 093°53'0 0.0
2018-Feb-14 00:29N 29°59' W 093°53'0 0.0
2018-Feb-13 23:59N 29°59' W 093°53'0 0.0
2018-Feb-13 23:29N 29°59' W 093°53'0 0.0
2018-Feb-13 22:59N 29°59' W 093°53'0 0.0
2018-Feb-13 22:29N 29°59' W 093°53'0 0.0
2018-Feb-13 21:59N 29°59' W 093°53'0 0.0
2018-Feb-13 21:29N 29°59' W 093°53'0 0.0
2018-Feb-13 20:56N 29°59' W 093°53'0 0.0
2018-Feb-13 20:29N 29°59' W 093°53'0 0.0
2018-Feb-13 19:59N 29°59' W 093°53'0 0.0
2018-Feb-13 19:29N 29°59' W 093°53'0 0.0
2018-Feb-13 18:59N 29°59' W 093°53'0 0.0
2018-Feb-13 18:29N 29°59' W 093°53'0 0.0
2018-Feb-13 17:59N 29°59' W 093°53'0 0.0
2018-Feb-13 17:29N 29°59' W 093°53'0 0.0
2018-Feb-13 16:56N 29°59' W 093°53'0 0.0
2018-Feb-13 16:29N 29°59' W 093°53'0 0.0
2018-Feb-13 15:59N 29°59' W 093°53'0 0.0
2018-Feb-13 15:29N 29°59' W 093°53'0 0.0
2018-Feb-13 14:59N 29°59' W 093°53'0 0.0
2018-Feb-13 14:29N 29°59' W 093°53'0 0.0
2018-Feb-13 13:59N 29°59' W 093°53'0 0.0
2018-Feb-13 13:29N 29°59' W 093°53'0 0.0
2018-Feb-13 12:59N 29°59' W 093°53'0 0.0
2018-Feb-13 12:29N 29°59' W 093°53'0 0.0
2018-Feb-13 11:59N 29°59' W 093°53'0 0.0
2018-Feb-13 11:29N 29°59' W 093°53'0 0.0
2018-Feb-13 10:59N 29°59' W 093°53'0 0.0
2018-Feb-13 10:26N 29°59' W 093°53'0 0.0
2018-Feb-13 09:59N 29°59' W 093°53'0 0.0
2018-Feb-13 09:26N 29°59' W 093°53'0 0.0
2018-Feb-13 08:59N 29°59' W 093°53'0 0.0
2018-Feb-13 08:29N 29°59' W 093°53'0 0.0
2018-Feb-13 07:59N 29°59' W 093°53'0 0.0
2018-Feb-13 07:29N 29°59' W 093°53'0 0.0
2018-Feb-13 06:59N 29°59' W 093°53'0 0.0
2018-Feb-13 06:29N 29°59' W 093°53'0 0.0
2018-Feb-13 05:59N 29°59' W 093°53'0 0.0
2018-Feb-13 05:29N 29°59' W 093°53'0 0.0
2018-Feb-13 04:59N 29°59' W 093°53'0 0.0
2018-Feb-13 04:29N 29°59' W 093°53'0 0.0
2018-Feb-13 04:00N 29°59' W 093°53'0 0.1
2018-Feb-13 03:29N 29°59' W 093°53'0 0.0
2018-Feb-13 02:59N 29°59' W 093°53'0 0.0
2018-Feb-13 02:29N 29°59' W 093°53'0 0.0
2018-Feb-13 01:59N 29°59' W 093°53'0 0.0
2018-Feb-13 01:29N 29°59' W 093°53'0 0.0
2018-Feb-13 00:59N 29°59' W 093°53'0 0.0
2018-Feb-13 00:26N 29°59' W 093°53'0 0.0
2018-Feb-12 23:59N 29°59' W 093°53'0 0.0
2018-Feb-12 23:29N 29°59' W 093°53'0 0.0
2018-Feb-12 23:00N 29°59' W 093°53'0 0.3
2018-Feb-12 22:29N 29°59' W 093°53'1 3.0
2018-Feb-12 22:00N 29°58' W 093°51'0 0.5
2018-Feb-12 21:30N 29°58' W 093°51'1 1.2
2018-Feb-12 21:00N 29°58' W 093°50'1 1.4
2018-Feb-12 20:30N 29°59' W 093°50'1 2.4
2018-Feb-12 20:00N 29°59' W 093°48'2 4.9
2018-Feb-12 19:30N 30°00' W 093°46'3 5.2
2018-Feb-12 18:55N 30°03' W 093°44'3 5.1
2018-Feb-12 18:19N 30°04' W 093°40'2 5.7
2018-Feb-12 18:00N 30°04' W 093°38'3 5.2
2018-Feb-12 17:29N 30°04' W 093°35'2 4.6
2018-Feb-12 17:00N 30°04' W 093°33'2 4.6
2018-Feb-12 16:29N 30°04' W 093°30'2 4.5
2018-Feb-12 16:00N 30°04' W 093°27'2 4.2
2018-Feb-12 15:30N 30°04' W 093°25'2 4.4
2018-Feb-12 14:59N 30°04' W 093°22'2 3.3
2018-Feb-12 14:29N 30°04' W 093°21'2 4.1
2018-Feb-12 14:00N 30°06' W 093°19'2 3.3
2018-Feb-12 13:30N 30°05' W 093°17'2 4.2
2018-Feb-12 13:00N 30°04' W 093°16'2 4.1
2018-Feb-12 12:30N 30°02' W 093°15'2 3.9
2018-Feb-12 11:59N 30°00' W 093°13'1 1.0
2018-Feb-12 11:27N 29°60' W 093°13'0 0.9
2018-Feb-12 10:59N 29°59' W 093°13'2 4.0
2018-Feb-12 10:31N 29°58' W 093°11'2 4.0
2018-Feb-12 09:55N 29°56' W 093°09'42 3.8
2018-Feb-11 22:53N 29°51' W 092°22'1 3.7
2018-Feb-11 22:30N 29°51' W 092°20'2 3.7
2018-Feb-11 21:58N 29°50' W 092°18'2 3.2
2018-Feb-11 21:30N 29°49' W 092°17'2 3.8
2018-Feb-11 21:00N 29°48' W 092°15'2 3.9
2018-Feb-11 20:30N 29°47' W 092°13'1 2.8
2018-Feb-11 19:59N 29°47' W 092°11'0 0.2
2018-Feb-11 19:27N 29°47' W 092°11'0 0.0
2018-Feb-11 19:00N 29°47' W 092°11'0 0.0
2018-Feb-11 18:29N 29°47' W 092°11'0 0.0
2018-Feb-11 18:01N 29°47' W 092°11'0 0.0
2018-Feb-11 17:30N 29°47' W 092°11'0 0.1
2018-Feb-11 17:00N 29°47' W 092°11'0 0.4
2018-Feb-11 16:30N 29°47' W 092°11'1 2.5
2018-Feb-11 16:01N 29°47' W 092°09'0 0.0
2018-Feb-11 15:31N 29°47' W 092°09'0 0.0
2018-Feb-11 15:00N 29°47' W 092°09'0 0.0
2018-Feb-11 14:30N 29°47' W 092°09'0 0.1
2018-Feb-11 14:00N 29°47' W 092°09'0 0.1
2018-Feb-11 13:30N 29°47' W 092°09'0 0.0
2018-Feb-11 12:59N 29°47' W 092°09'0 0.0
2018-Feb-11 12:31N 29°47' W 092°09'0 0.0
2018-Feb-11 12:00N 29°47' W 092°09'0 0.0
2018-Feb-11 11:31N 29°47' W 092°09'0 0.0
2018-Feb-11 11:00N 29°47' W 092°09'0 0.0
2018-Feb-11 10:30N 29°47' W 092°09'0 0.0
2018-Feb-11 10:01N 29°47' W 092°09'0 0.0
2018-Feb-11 09:30N 29°47' W 092°09'0 0.0
2018-Feb-11 09:00N 29°47' W 092°09'0 0.0
2018-Feb-11 08:31N 29°47' W 092°09'0 0.0
2018-Feb-11 08:00N 29°47' W 092°09'0 0.0
2018-Feb-11 07:31N 29°47' W 092°09'0 0.0
2018-Feb-11 07:00N 29°47' W 092°09'0 0.0
2018-Feb-11 06:30N 29°47' W 092°09'0 0.0
2018-Feb-11 06:00N 29°47' W 092°09'0 0.0
2018-Feb-11 05:31N 29°47' W 092°09'  

Dump ship's entire track history